Time;durP1;ratioP1;P1;durP2;ratioP2;P2;SDS_P1;SDS_P2;PMS_P1;PMS_P2;Temp;Humidity;BMP_temperature;BMP_pressure;BME280_temperature;BME280_humidity;BME280_pressure;Samples;Min_cycle;Max_cycle;Signal;HPM_P1;HPM_P2
2022/07/12 00:01:03;;;;;;;2.13;1.67;;;18.50;99.90;;;;;;5024988;28;20538;-34
2022/07/12 00:03:28;;;;;;;2.55;1.42;;;18.50;99.90;;;;;;5033602;28;20028;-34
2022/07/12 00:05:55;;;;;;;3.05;1.40;;;18.40;99.90;;;;;;5034702;28;20474;-30
2022/07/12 00:08:20;;;;;;;1.25;1.10;;;18.40;99.90;;;;;;5036820;28;20068;-34
2022/07/12 00:10:46;;;;;;;1.25;1.15;;;18.30;99.90;;;;;;5036052;28;20484;-30
2022/07/12 00:13:11;;;;;;;1.45;1.33;;;18.20;99.90;;;;;;5017163;28;20030;-31
2022/07/12 00:15:37;;;;;;;1.08;1.08;;;18.10;99.90;;;;;;5038573;28;20030;-30
2022/07/12 00:18:03;;;;;;;2.88;1.45;;;18.00;99.90;;;;;;5030593;28;20024;-32
2022/07/12 00:20:29;;;;;;;1.45;1.27;;;17.90;99.90;;;;;;5035530;28;20072;-34
2022/07/12 00:22:54;;;;;;;6.78;1.48;;;17.90;99.90;;;;;;5037316;28;20032;-36
2022/07/12 00:25:21;;;;;;;2.05;1.50;;;17.80;99.90;;;;;;5033273;28;20112;-32
2022/07/12 00:27:46;;;;;;;9.48;1.77;;;17.70;99.90;;;;;;5034807;28;20505;-33
2022/07/12 00:30:12;;;;;;;1.42;1.33;;;17.70;99.90;;;;;;5034249;28;20103;-29
2022/07/12 00:32:38;;;;;;;1.70;1.42;;;17.60;99.90;;;;;;5036801;28;20164;-34
2022/07/12 00:35:05;;;;;;;1.75;1.20;;;17.60;99.90;;;;;;5034806;28;20048;-30
2022/07/12 00:37:32;;;;;;;3.22;2.35;;;17.50;99.90;;;;;;5034846;28;20033;-32
2022/07/12 00:39:57;;;;;;;2.20;1.92;;;17.50;99.90;;;;;;5033654;28;20026;-33
2022/07/12 00:42:24;;;;;;;1.20;1.10;;;17.50;99.90;;;;;;5034781;28;20037;-49
2022/07/12 00:44:50;;;;;;;1.85;1.48;;;17.50;99.90;;;;;;5034574;28;20081;-54
2022/07/12 00:47:28;;;;;;;1.60;1.50;;;17.50;99.90;;;;;;5031427;28;20133;-34
2022/07/12 00:49:54;;;;;;;1.85;1.60;;;17.60;99.90;;;;;;5035472;28;20014;-30
2022/07/12 00:52:20;;;;;;;1.60;1.30;;;17.60;99.90;;;;;;5038769;28;20495;-35
2022/07/12 00:54:45;;;;;;;1.50;1.40;;;17.70;99.90;;;;;;5033941;28;20018;-33
2022/07/12 00:57:11;;;;;;;1.27;1.17;;;17.70;99.90;;;;;;5038048;28;20452;-49
2022/07/12 00:59:36;;;;;;;1.33;1.23;;;17.70;99.90;;;;;;5025053;28;20072;-40
2022/07/12 01:02:02;;;;;;;1.40;1.30;;;17.70;99.90;;;;;;5035409;28;20485;-40
2022/07/12 01:04:28;;;;;;;1.40;1.10;;;17.70;99.90;;;;;;5050149;28;20053;-39
2022/07/12 01:06:54;;;;;;;1.20;1.10;;;17.70;99.90;;;;;;5032393;28;20025;-39
2022/07/12 01:09:20;;;;;;;1.33;0.98;;;17.60;99.90;;;;;;5034623;28;20493;-40
2022/07/12 01:11:46;;;;;;;1.02;0.95;;;17.60;99.90;;;;;;5037398;28;20061;-36
2022/07/12 01:14:13;;;;;;;1.30;1.20;;;17.50;99.90;;;;;;5043051;28;20144;-39
2022/07/12 01:16:39;;;;;;;1.38;1.27;;;17.50;99.90;;;;;;5032279;28;20108;-38
2022/07/12 01:19:06;;;;;;;2.33;1.02;;;17.40;99.90;;;;;;5041023;28;20128;-37
2022/07/12 01:21:37;;;;;;;1.45;1.35;;;17.40;99.90;;;;;;5034141;28;20108;-38
2022/07/12 01:24:05;;;;;;;2.33;1.42;;;17.30;99.90;;;;;;5033533;28;20033;-40
2022/07/12 01:26:31;;;;;;;1.38;1.17;;;17.30;99.90;;;;;;5029139;28;20112;-42
2022/07/12 01:28:58;;;;;;;2.47;1.70;;;17.30;99.90;;;;;;5032625;28;20499;-36
2022/07/12 01:31:24;;;;;;;3.35;1.65;;;17.30;99.90;;;;;;5018610;28;20125;-33
2022/07/12 01:33:50;;;;;;;2.78;1.58;;;17.30;99.90;;;;;;5036299;28;20053;-34
2022/07/12 01:36:16;;;;;;;2.20;1.80;;;17.30;99.90;;;;;;5032750;28;20029;-31
2022/07/12 01:38:42;;;;;;;1.77;1.67;;;17.30;99.90;;;;;;5031376;28;20509;-37
2022/07/12 01:41:08;;;;;;;1.40;1.30;;;17.40;99.90;;;;;;5036173;28;20033;-35
2022/07/12 01:43:35;;;;;;;1.52;1.42;;;17.50;99.90;;;;;;5014558;28;20470;-31
2022/07/12 01:46:00;;;;;;;1.85;1.20;;;17.40;99.90;;;;;;5028678;28;20474;-32
2022/07/12 01:48:26;;;;;;;1.20;1.10;;;17.40;99.90;;;;;;5032615;28;20106;-48
2022/07/12 01:50:52;;;;;;;2.35;1.55;;;17.40;99.90;;;;;;5037319;28;20104;-40
2022/07/12 01:53:18;;;;;;;3.08;1.42;;;17.40;99.90;;;;;;5033124;28;20499;-40
2022/07/12 01:55:44;;;;;;;1.75;1.58;;;17.30;99.90;;;;;;5035402;28;20025;-30
2022/07/12 01:58:13;;;;;;;1.50;1.40;;;17.30;99.90;;;;;;5030889;28;20470;-33
2022/07/12 02:00:39;;;;;;;2.40;1.90;;;17.30;99.90;;;;;;5033195;28;20037;-32
2022/07/12 02:03:05;;;;;;;2.17;1.98;;;17.40;99.90;;;;;;5033077;28;20032;-32
2022/07/12 02:05:31;;;;;;;3.42;1.98;;;17.40;99.90;;;;;;5032642;28;20108;-33
2022/07/12 02:07:57;;;;;;;1.83;1.70;;;17.40;99.90;;;;;;5030534;28;20481;-30
2022/07/12 02:10:22;;;;;;;1.98;1.75;;;17.50;99.90;;;;;;5032361;28;20080;-52
2022/07/12 02:12:48;;;;;;;2.38;2.17;;;17.50;99.90;;;;;;5033877;28;20025;-38
2022/07/12 02:15:14;;;;;;;2.25;1.90;;;17.50;99.90;;;;;;5031413;28;20029;-38
2022/07/12 02:17:39;;;;;;;2.75;1.77;;;17.40;99.90;;;;;;5032193;28;20036;-39
2022/07/12 02:20:06;;;;;;;1.75;1.65;;;17.40;99.90;;;;;;5033635;28;20033;-39
2022/07/12 02:22:31;;;;;;;3.45;1.73;;;17.30;99.90;;;;;;5033322;28;20030;-40
2022/07/12 02:24:57;;;;;;;3.97;1.95;;;17.30;99.90;;;;;;5014298;28;20060;-38
2022/07/12 02:27:23;;;;;;;3.08;2.15;;;17.20;99.90;;;;;;5031473;28;20025;-34
2022/07/12 02:29:48;;;;;;;2.92;1.90;;;17.20;99.90;;;;;;5035661;28;20025;-29
2022/07/12 02:32:14;;;;;;;1.80;1.70;;;17.20;99.90;;;;;;5032777;28;20052;-34
2022/07/12 02:34:39;;;;;;;1.95;1.77;;;17.10;99.90;;;;;;5031298;28;20068;-30
2022/07/12 02:37:05;;;;;;;5.95;2.35;;;17.10;99.90;;;;;;5029147;28;20025;-32
2022/07/12 02:39:30;;;;;;;3.17;1.63;;;17.00;99.90;;;;;;5032823;28;20481;-36
2022/07/12 02:41:56;;;;;;;4.47;1.98;;;16.90;99.90;;;;;;5032566;28;20040;-31
2022/07/12 02:44:22;;;;;;;2.03;1.90;;;16.80;99.90;;;;;;5031154;28;20037;-35
2022/07/12 02:46:47;;;;;;;1.83;1.73;;;16.80;99.90;;;;;;5031452;28;20375;-39
2022/07/12 02:49:13;;;;;;;2.97;1.77;;;16.70;99.90;;;;;;5032519;28;20060;-40
2022/07/12 02:51:39;;;;;;;2.42;2.22;;;16.70;99.90;;;;;;5036391;28;20049;-38
2022/07/12 02:54:05;;;;;;;2.70;2.17;;;16.70;99.90;;;;;;5032392;28;20132;-39
2022/07/12 02:56:31;;;;;;;4.43;2.70;;;16.80;99.90;;;;;;5035398;28;20109;-38
2022/07/12 02:58:56;;;;;;;5.20;2.65;;;16.80;99.90;;;;;;5031755;28;20079;-39
2022/07/12 03:01:22;;;;;;;2.42;2.22;;;16.90;99.90;;;;;;4996856;28;20497;-40
2022/07/12 03:03:48;;;;;;;3.22;2.92;;;17.10;99.90;;;;;;5015088;28;20029;-39
2022/07/12 03:06:13;;;;;;;5.40;2.92;;;17.20;99.90;;;;;;5031318;28;20076;-39
2022/07/12 03:08:39;;;;;;;4.10;2.80;;;17.20;99.90;;;;;;5006869;28;20021;-40
2022/07/12 03:11:05;;;;;;;3.72;2.88;;;17.30;99.90;;;;;;5032441;28;20029;-44
2022/07/12 03:13:30;;;;;;;3.35;2.47;;;17.30;99.90;;;;;;5031923;28;20359;-36
2022/07/12 03:15:56;;;;;;;3.65;2.92;;;17.30;99.90;;;;;;5031144;28;20080;-38
2022/07/12 03:18:22;;;;;;;3.47;2.70;;;17.20;99.90;;;;;;5032875;28;20052;-39
2022/07/12 03:20:48;;;;;;;4.70;3.33;;;17.20;99.90;;;;;;5042580;28;20101;-39
2022/07/12 03:23:14;;;;;;;4.32;3.20;;;17.20;99.90;;;;;;5031650;28;20021;-39
2022/07/12 03:25:40;;;;;;;3.50;2.83;;;17.20;99.90;;;;;;5031067;28;20049;-39
2022/07/12 03:28:05;;;;;;;3.45;3.00;;;17.10;99.90;;;;;;5014357;28;20017;-39
2022/07/12 03:30:31;;;;;;;5.63;3.28;;;17.10;99.90;;;;;;5032391;28;20024;-39
2022/07/12 03:32:56;;;;;;;4.82;2.85;;;17.10;99.90;;;;;;5035349;28;20014;-31
2022/07/12 03:35:22;;;;;;;7.00;3.50;;;17.10;99.90;;;;;;5031471;28;20041;-30
2022/07/12 03:37:49;;;;;;;3.55;3.25;;;17.10;99.90;;;;;;5032843;28;20507;-33
2022/07/12 03:40:16;;;;;;;5.57;3.25;;;17.10;99.90;;;;;;5032016;28;20077;-33
2022/07/12 03:42:43;;;;;;;4.10;3.20;;;17.10;99.90;;;;;;5031402;28;20025;-30
2022/07/12 03:45:10;;;;;;;5.22;3.33;;;17.10;99.90;;;;;;5029893;28;20028;-32
2022/07/12 03:47:36;;;;;;;5.05;3.00;;;17.10;99.90;;;;;;5031168;28;20049;-29
2022/07/12 03:50:06;;;;;;;3.72;3.08;;;17.10;99.90;;;;;;5031503;28;20038;-30
2022/07/12 03:52:33;;;;;;;3.22;2.90;;;17.00;99.90;;;;;;5035555;28;20103;-48
2022/07/12 03:54:59;;;;;;;2.73;2.53;;;17.00;99.90;;;;;;5031116;28;20026;-38
2022/07/12 03:57:26;;;;;;;3.10;2.90;;;16.90;99.90;;;;;;5031573;28;20071;-39
2022/07/12 03:59:52;;;;;;;2.90;1.92;;;16.90;99.90;;;;;;5034572;28;20025;-38
2022/07/12 04:02:18;;;;;;;3.22;2.95;;;16.90;99.90;;;;;;5033981;28;20101;-39
2022/07/12 04:04:43;;;;;;;3.08;2.70;;;16.90;99.90;;;;;;5003614;28;20024;-67
2022/07/12 04:07:09;;;;;;;3.28;2.97;;;16.90;99.90;;;;;;5034796;28;20025;-30
2022/07/12 04:09:35;;;;;;;4.38;3.75;;;16.90;99.90;;;;;;5034764;28;20485;-31
2022/07/12 04:12:01;;;;;;;4.75;3.65;;;16.90;99.90;;;;;;5040172;28;20493;-41
2022/07/12 04:14:28;;;;;;;3.50;3.17;;;17.00;99.90;;;;;;5031920;28;20150;-30
2022/07/12 04:16:54;;;;;;;3.72;3.40;;;17.10;99.90;;;;;;5035455;28;20017;-32
2022/07/12 04:19:23;;;;;;;6.90;3.40;;;17.10;99.90;;;;;;5035287;28;20037;-32
2022/07/12 04:21:49;;;;;;;3.60;3.30;;;17.10;99.90;;;;;;5016471;28;20029;-34
2022/07/12 04:24:15;;;;;;;3.42;3.10;;;17.00;99.90;;;;;;5034181;28;20041;-32
2022/07/12 04:26:40;;;;;;;3.15;2.80;;;17.10;99.90;;;;;;5034966;28;20029;-29
2022/07/12 04:29:06;;;;;;;5.85;3.40;;;17.00;99.90;;;;;;5036487;28;20112;-34
2022/07/12 04:31:32;;;;;;;5.10;3.63;;;17.10;99.90;;;;;;5034590;28;20538;-34
2022/07/12 04:33:57;;;;;;;4.22;3.83;;;17.10;99.90;;;;;;5031894;28;20032;-33
2022/07/12 04:36:23;;;;;;;4.28;3.88;;;17.10;99.90;;;;;;5032954;28;20036;-33
2022/07/12 04:38:49;;;;;;;4.25;3.83;;;17.10;99.90;;;;;;5035429;28;20429;-30
2022/07/12 04:41:15;;;;;;;4.03;3.63;;;17.20;99.90;;;;;;5034173;28;20481;-32
2022/07/12 04:43:41;;;;;;;5.38;3.75;;;17.30;99.90;;;;;;5032420;28;20025;-33
2022/07/12 04:46:10;;;;;;;5.70;3.80;;;17.30;99.90;;;;;;5033964;28;20029;-32
2022/07/12 04:48:36;;;;;;;3.97;3.58;;;17.30;99.90;;;;;;5035233;28;20049;-32
2022/07/12 04:51:02;;;;;;;7.05;3.75;;;17.40;99.90;;;;;;5032355;28;20026;-34
2022/07/12 04:53:28;;;;;;;3.35;3.03;;;17.50;99.90;;;;;;5031032;28;20483;-30
2022/07/12 04:55:56;;;;;;;3.53;3.22;;;17.50;99.90;;;;;;5032640;28;20034;-33
2022/07/12 04:58:23;;;;;;;3.78;3.47;;;17.60;99.90;;;;;;5035219;28;20030;-30
2022/07/12 05:00:52;;;;;;;3.30;3.00;;;17.60;99.90;;;;;;5034461;28;20025;-39
2022/07/12 05:03:17;;;;;;;14.10;4.43;;;17.70;99.90;;;;;;5032320;28;20040;-29
2022/07/12 05:05:43;;;;;;;5.78;4.00;;;17.80;99.90;;;;;;5033439;28;20037;-34
2022/07/12 05:08:09;;;;;;;3.70;3.40;;;17.80;99.90;;;;;;5034160;28;20021;-32
2022/07/12 05:10:35;;;;;;;3.33;3.03;;;17.90;99.90;;;;;;5030478;28;20441;-38
2022/07/12 05:13:01;;;;;;;3.75;3.45;;;17.90;99.90;;;;;;5034162;28;20017;-39
2022/07/12 05:15:27;;;;;;;5.00;4.20;;;18.00;99.90;;;;;;5033910;28;20516;-39
2022/07/12 05:17:52;;;;;;;3.75;3.30;;;18.00;99.90;;;;;;5032512;28;20100;-39
2022/07/12 05:20:19;;;;;;;4.40;3.95;;;18.20;99.90;;;;;;5030731;28;20463;-39
2022/07/12 05:22:44;;;;;;;4.32;3.28;;;18.20;99.90;;;;;;5032435;28;20112;-39
2022/07/12 05:25:10;;;;;;;3.63;3.20;;;18.30;99.90;;;;;;5033402;28;20144;-31
2022/07/12 05:27:36;;;;;;;4.05;3.45;;;18.40;99.90;;;;;;5032594;28;20040;-39
2022/07/12 05:30:03;;;;;;;5.35;4.32;;;18.50;99.90;;;;;;5032620;28;20029;-38
2022/07/12 05:32:28;;;;;;;3.78;3.17;;;18.50;99.90;;;;;;5033366;28;20515;-39
2022/07/12 05:34:54;;;;;;;3.90;3.42;;;18.60;99.90;;;;;;5014159;28;20025;-57
2022/07/12 05:37:20;;;;;;;5.10;3.70;;;18.70;99.90;;;;;;5032271;28;20490;-31
2022/07/12 05:39:45;;;;;;;3.92;3.63;;;18.80;99.90;;;;;;5032529;28;20048;-39
2022/07/12 05:42:11;;;;;;;7.03;4.07;;;18.90;99.90;;;;;;5028289;28;20025;-39
2022/07/12 05:44:37;;;;;;;4.82;3.60;;;19.00;99.90;;;;;;5022645;28;20040;-36
2022/07/12 05:47:03;;;;;;;4.10;3.70;;;19.10;99.90;;;;;;5029760;28;20029;-29
2022/07/12 05:49:28;;;;;;;4.05;3.63;;;19.10;99.90;;;;;;5031218;28;20116;-39
2022/07/12 05:54:38;;;;;;;8.65;4.00;;;19.30;99.90;;;;;;5026378;28;20106;-33
2022/07/12 05:57:04;;;;;;;4.22;3.83;;;19.50;99.90;;;;;;5028230;28;20037;-28
2022/07/12 05:59:30;;;;;;;5.70;4.22;;;19.60;99.90;;;;;;5028678;28;20428;-31
2022/07/12 06:01:56;;;;;;;4.60;4.03;;;19.70;99.90;;;;;;5031535;28;20083;-32
2022/07/12 06:04:22;;;;;;;4.32;3.78;;;19.70;99.90;;;;;;5028741;28;20021;-38
2022/07/12 06:06:47;;;;;;;5.47;3.58;;;19.80;99.90;;;;;;5024815;28;20037;-31
2022/07/12 06:09:13;;;;;;;6.80;4.40;;;20.10;99.90;;;;;;5032058;28;20029;-32
2022/07/12 06:11:39;;;;;;;10.40;4.18;;;20.70;99.90;;;;;;5030464;28;20021;-31
2022/07/12 06:14:04;;;;;;;4.63;3.88;;;21.10;99.90;;;;;;5030836;28;20021;-30
2022/07/12 06:16:30;;;;;;;4.65;4.13;;;21.10;99.90;;;;;;5031669;28;20033;-34
2022/07/12 06:18:56;;;;;;;4.38;3.97;;;21.20;99.90;;;;;;5031591;28;20037;-33
2022/07/12 06:21:21;;;;;;;4.90;4.05;;;21.30;99.90;;;;;;5030932;28;20508;-35
2022/07/12 06:23:47;;;;;;;3.45;3.10;;;21.60;99.90;;;;;;5027423;28;20119;-34
2022/07/12 06:26:12;;;;;;;4.70;3.63;;;22.00;99.90;;;;;;5027454;28;20029;-35
2022/07/12 06:28:38;;;;;;;6.45;4.15;;;22.80;99.90;;;;;;5031931;28;20048;-33
2022/07/12 06:31:04;;;;;;;6.90;4.22;;;23.90;99.90;;;;;;5025886;28;20489;-31
2022/07/12 06:33:30;;;;;;;4.72;3.25;;;24.60;99.90;;;;;;5034702;28;20029;-29
2022/07/12 06:35:55;;;;;;;3.80;3.50;;;25.20;99.90;;;;;;5040866;28;20096;-39
2022/07/12 06:38:21;;;;;;;5.47;3.17;;;25.50;99.90;;;;;;5033517;28;20041;-40
2022/07/12 06:40:47;;;;;;;3.78;2.92;;;25.30;99.90;;;;;;5032518;28;20495;-39
2022/07/12 06:43:13;;;;;;;3.80;3.00;;;25.10;99.90;;;;;;5033281;28;20094;-39
2022/07/12 06:45:40;;;;;;;3.43;3.10;;;25.10;99.90;;;;;;5030792;28;20017;-37
2022/07/12 06:48:05;;;;;;;9.32;3.80;;;24.90;99.90;;;;;;5011620;28;20042;-37
2022/07/12 06:50:31;;;;;;;5.35;3.75;;;24.50;99.90;;;;;;5017863;28;20029;-38
2022/07/12 06:52:57;;;;;;;6.53;3.80;;;24.10;99.90;;;;;;5030949;28;20025;-39
2022/07/12 06:55:23;;;;;;;4.82;4.07;;;23.70;99.90;;;;;;5035454;28;20088;-36
2022/07/12 06:57:49;;;;;;;6.70;3.67;;;23.40;99.90;;;;;;5030180;28;20432;-63
2022/07/12 07:00:14;;;;;;;3.97;3.65;;;23.20;99.90;;;;;;5029799;28;20064;-38
2022/07/12 07:02:41;;;;;;;2.60;2.15;;;23.00;99.90;;;;;;5027271;28;20055;-34
2022/07/12 07:05:07;;;;;;;4.43;3.47;;;23.00;99.90;;;;;;5026750;28;20041;-29
2022/07/12 07:07:33;;;;;;;5.35;3.38;;;23.10;99.90;;;;;;5030158;28;20389;-32
2022/07/12 07:09:59;;;;;;;6.13;2.67;;;23.40;99.90;;;;;;5026895;28;20033;-30
2022/07/12 07:12:25;;;;;;;3.83;2.90;;;23.70;99.90;;;;;;5030784;28;20462;-34
2022/07/12 07:14:51;;;;;;;3.55;3.15;;;23.90;99.90;;;;;;5029662;28;20026;-31
2022/07/12 07:17:19;;;;;;;3.83;3.28;;;24.20;99.90;;;;;;5031328;28;20478;-33
2022/07/12 07:19:45;;;;;;;4.10;3.53;;;24.50;99.90;;;;;;5032286;28;20481;-33
2022/07/12 07:22:12;;;;;;;5.43;3.63;;;24.80;99.90;;;;;;5030803;28;20037;-32
2022/07/12 07:24:38;;;;;;;4.28;2.53;;;25.20;99.90;;;;;;5033086;28;20054;-29
2022/07/12 07:27:04;;;;;;;2.67;2.47;;;25.80;99.90;;;;;;5012659;28;20116;-32
2022/07/12 07:32:14;;;;;;;2.33;2.20;;;26.60;99.90;;;;;;5022651;28;20107;-32
2022/07/12 07:34:41;;;;;;;5.05;2.53;;;26.10;99.90;;;;;;5032498;28;20432;-35
2022/07/12 07:37:08;;;;;;;3.80;3.10;;;25.60;99.90;;;;;;5036690;28;20033;-29
2022/07/12 07:39:34;;;;;;;3.15;2.58;;;25.70;99.90;;;;;;5049264;28;20043;-30
2022/07/12 07:41:59;;;;;;;2.75;2.55;;;26.10;99.90;;;;;;5052211;28;20029;-37
2022/07/12 07:44:28;;;;;;;4.32;2.47;;;26.20;99.90;;;;;;5025400;28;20133;-40
2022/07/12 07:46:53;;;;;;;2.17;1.98;;;26.00;99.90;;;;;;5014473;28;20036;-29
2022/07/12 07:49:19;;;;;;;2.50;2.30;;;25.70;99.90;;;;;;5003393;28;20394;-35
2022/07/12 07:51:45;;;;;;;3.67;2.63;;;25.40;99.90;;;;;;5029931;28;20025;-37
2022/07/12 07:54:10;;;;;;;4.70;3.63;;;25.20;99.90;;;;;;5036155;28;20025;-29
2022/07/12 07:56:36;;;;;;;11.70;2.72;;;25.00;99.90;;;;;;5035280;28;20044;-30
2022/07/12 07:59:02;;;;;;;3.28;2.97;;;24.90;99.90;;;;;;5043661;28;20040;-34
2022/07/12 08:01:44;;;;;;;6.53;2.90;;;24.90;99.90;;;;;;5042900;28;20430;-30
2022/07/12 08:04:11;;;;;;;4.05;2.45;;;24.90;99.90;;;;;;5033564;28;20045;-31
2022/07/12 08:06:37;;;;;;;2.97;2.78;;;24.90;99.90;;;;;;5034691;28;20481;-32
2022/07/12 08:09:03;;;;;;;5.22;2.92;;;24.80;99.90;;;;;;5016352;28;20034;-39
2022/07/12 08:11:29;;;;;;;2.60;2.40;;;24.80;99.90;;;;;;5033972;28;20500;-40
2022/07/12 08:13:54;;;;;;;2.17;2.03;;;25.00;99.90;;;;;;5034982;28;20377;-40
2022/07/12 08:16:20;;;;;;;2.88;1.90;;;25.30;99.90;;;;;;5006994;28;20033;-35
2022/07/12 08:18:46;;;;;;;2.13;2.03;;;25.80;99.90;;;;;;5034939;28;20036;-31
2022/07/12 08:21:11;;;;;;;2.67;2.03;;;25.90;99.90;;;;;;5026419;28;20037;-31
2022/07/12 08:23:37;;;;;;;2.65;1.63;;;26.00;99.90;;;;;;5028038;28;20041;-32
2022/07/12 08:26:03;;;;;;;6.60;2.10;;;26.30;99.90;;;;;;5026998;28;20049;-31
2022/07/12 08:28:28;;;;;;;2.28;2.03;;;26.60;99.90;;;;;;5028980;28;20025;-36
2022/07/12 08:30:54;;;;;;;2.00;1.90;;;26.80;99.90;;;;;;5034062;28;20036;-31
2022/07/12 08:33:19;;;;;;;3.72;2.45;;;26.90;99.90;;;;;;5040188;28;20148;-39
2022/07/12 08:35:45;;;;;;;3.35;1.90;;;27.30;99.90;;;;;;5033632;28;20033;-42
2022/07/12 08:38:11;;;;;;;2.00;1.77;;;27.60;99.70;;;;;;5028325;28;20028;-52
2022/07/12 08:40:37;;;;;;;2.15;2.03;;;28.00;99.20;;;;;;5023417;28;20034;-39
2022/07/12 08:43:03;;;;;;;3.63;1.65;;;28.50;98.80;;;;;;5028057;28;20031;-38
2022/07/12 08:45:29;;;;;;;4.27;2.50;;;29.00;98.10;;;;;;5027613;28;20951;-38
2022/07/12 08:47:55;;;;;;;2.30;2.10;;;29.30;97.90;;;;;;5028072;28;20402;-40
2022/07/12 08:50:23;;;;;;;1.25;1.13;;;29.50;97.70;;;;;;5024980;28;20508;-38
2022/07/12 08:52:52;;;;;;;3.25;2.10;;;29.90;97.70;;;;;;5025528;28;20469;-37
2022/07/12 08:55:20;;;;;;;4.47;2.58;;;30.20;97.10;;;;;;5011234;28;20720;-38
2022/07/12 08:57:49;;;;;;;2.28;2.08;;;30.70;96.50;;;;;;5025647;28;20505;-39
2022/07/12 09:00:15;;;;;;;1.40;1.20;;;31.00;95.80;;;;;;5034224;28;20035;-39
2022/07/12 09:02:48;;;;;;;3.50;2.00;;;31.40;95.30;;;;;;5033225;28;20104;-39
2022/07/12 09:05:16;;;;;;;2.45;2.25;;;31.70;94.90;;;;;;5033944;28;20108;-36
2022/07/12 09:07:42;;;;;;;1.70;1.60;;;31.80;94.20;;;;;;5033578;28;20033;-41
2022/07/12 09:10:09;;;;;;;2.80;1.83;;;31.80;94.10;;;;;;5035060;28;20473;-39
2022/07/12 09:12:36;;;;;;;2.17;1.55;;;31.80;94.40;;;;;;5031354;28;20046;-39
2022/07/12 09:15:16;;;;;;;1.67;1.58;;;31.80;94.10;;;;;;5015459;28;20033;-40
2022/07/12 09:17:55;;;;;;;1.67;1.58;;;31.70;94.10;;;;;;5033216;28;20473;-39
2022/07/12 09:20:21;;;;;;;2.38;2.17;;;31.40;94.10;;;;;;5034182;28;20051;-39
2022/07/12 09:23:00;;;;;;;2.00;1.83;;;31.20;93.80;;;;;;5016080;28;20136;-38
2022/07/12 09:25:26;;;;;;;1.25;1.00;;;31.20;93.60;;;;;;5034653;28;20041;-39
2022/07/12 09:27:56;;;;;;;1.60;1.47;;;31.20;93.30;;;;;;5033260;28;20071;-38
2022/07/12 09:30:25;;;;;;;4.65;1.42;;;31.10;92.70;;;;;;5033105;28;20513;-53
2022/07/12 09:36:07;;;;;;;1.52;1.33;;;30.50;93.70;;;;;;5032995;28;20041;-40
2022/07/12 09:38:37;;;;;;;3.90;2.10;;;30.40;92.80;;;;;;5016660;28;20392;-40
2022/07/12 09:41:09;;;;;;;1.60;1.50;;;30.50;93.20;;;;;;5034001;28;20499;-39
2022/07/12 09:43:35;;;;;;;2.10;1.90;;;30.40;93.50;;;;;;5034078;28;20033;-39
2022/07/12 09:46:01;;;;;;;2.90;2.13;;;30.30;94.00;;;;;;5032950;28;20034;-38
2022/07/12 09:48:28;;;;;;;2.20;1.73;;;30.10;94.20;;;;;;5033195;28;20116;-34
2022/07/12 09:50:57;;;;;;;2.22;2.03;;;30.20;94.00;;;;;;5033499;28;20028;-35
2022/07/12 09:53:33;;;;;;;1.92;1.83;;;30.30;94.00;;;;;;5033526;28;20025;-35
2022/07/12 09:56:05;;;;;;;2.67;2.13;;;30.20;94.10;;;;;;5032738;28;20483;-31
2022/07/12 09:58:34;;;;;;;6.00;2.60;;;30.40;93.80;;;;;;5033032;28;20026;-34
2022/07/12 10:01:01;;;;;;;3.60;2.10;;;30.40;94.00;;;;;;5033431;28;20087;-30
2022/07/12 10:03:29;;;;;;;;;;;30.20;94.40;;;;;;5033566;28;20037;-29
2022/07/12 10:05:55;;;;;;;1.63;1.52;;;30.30;93.50;;;;;;5032763;28;19967;-31
2022/07/12 10:08:21;;;;;;;4.68;1.83;;;30.30;93.90;;;;;;5033316;28;20041;-29
2022/07/12 10:10:49;;;;;;;2.38;2.10;;;30.00;94.20;;;;;;5033478;28;20441;-28
2022/07/12 10:13:15;;;;;;;4.75;1.83;;;30.10;93.80;;;;;;5032050;28;20029;-34
2022/07/12 10:15:45;;;;;;;4.55;1.60;;;30.20;93.80;;;;;;5032042;28;20467;-32
2022/07/12 10:18:18;;;;;;;2.08;1.83;;;30.40;93.60;;;;;;5031468;28;20533;-34
2022/07/12 10:20:45;;;;;;;3.65;2.05;;;30.70;93.70;;;;;;5032028;28;20377;-30
2022/07/12 10:23:20;;;;;;;2.10;2.00;;;31.00;92.70;;;;;;5032852;28;20129;-33
2022/07/12 10:25:49;;;;;;;2.75;1.80;;;31.30;92.60;;;;;;5033456;28;20048;-30
2022/07/12 10:28:15;;;;;;;2.58;2.38;;;31.30;92.00;;;;;;5032644;28;20026;-38
2022/07/12 10:30:43;;;;;;;1.63;1.53;;;31.10;92.90;;;;;;5033741;28;20105;-34
2022/07/12 10:33:23;;;;;;;2.42;2.20;;;31.20;93.20;;;;;;5030872;28;20033;-31
2022/07/12 10:36:07;;;;;;;2.45;1.80;;;31.30;92.90;;;;;;5030270;28;20481;-30
2022/07/12 10:38:34;;;;;;;1.92;1.83;;;31.20;93.20;;;;;;5032323;28;20034;-40
2022/07/12 10:41:24;;;;;;;;;;;31.20;93.00;;;;;;5033012;28;20029;-48
2022/07/12 10:44:05;;;;;;;5.28;2.47;;;31.10;92.70;;;;;;5032743;28;19909;-40
2022/07/12 10:46:33;;;;;;;2.58;1.70;;;30.70;92.80;;;;;;5032680;28;20027;-40
2022/07/12 10:49:27;;;;;;;3.58;2.30;;;30.30;93.60;;;;;;5032429;28;20557;-39
2022/07/12 10:52:23;;;;;;;2.10;2.00;;;30.00;93.70;;;;;;5032588;28;20497;-40
2022/07/12 10:54:54;;;;;;;2.08;1.95;;;30.00;93.90;;;;;;5029193;28;20068;-39
2022/07/12 10:57:40;;;;;;;2.95;1.90;;;29.80;93.50;;;;;;5032559;28;20045;-40
2022/07/12 11:00:08;;;;;;;5.45;2.45;;;29.90;93.60;;;;;;5033199;28;20026;-39
2022/07/12 11:02:35;;;;;;;2.58;1.80;;;29.90;94.30;;;;;;5018317;28;20036;-40
2022/07/12 11:05:00;;;;;;;3.03;2.53;;;29.70;94.20;;;;;;5028154;28;20021;-39
2022/07/12 11:07:27;;;;;;;2.75;1.98;;;29.60;94.20;;;;;;5031062;28;20036;-46
2022/07/12 11:09:54;;;;;;;2.15;1.83;;;29.50;93.80;;;;;;5033205;28;20021;-28
2022/07/12 11:12:20;;;;;;;2.38;2.13;;;29.40;93.80;;;;;;5018045;28;20040;-33
2022/07/12 11:14:46;;;;;;;2.60;2.17;;;29.30;93.90;;;;;;5036047;28;20021;-32
2022/07/12 11:17:13;;;;;;;1.70;1.60;;;29.50;93.80;;;;;;5036117;28;20576;-30
2022/07/12 11:19:39;;;;;;;1.40;1.20;;;29.60;93.80;;;;;;5037127;28;20378;-31
2022/07/12 11:22:05;;;;;;;4.10;1.98;;;29.80;92.50;;;;;;5036155;28;20022;-37
2022/07/12 11:24:32;;;;;;;2.63;2.42;;;29.90;92.90;;;;;;5036075;28;20458;-30
2022/07/12 11:27:01;;;;;;;2.45;2.17;;;30.00;93.20;;;;;;5035781;28;20028;-61
2022/07/12 11:29:27;;;;;;;2.88;2.63;;;30.00;93.70;;;;;;5036856;28;20439;-29
2022/07/12 11:32:05;;;;;;;3.47;2.42;;;30.00;93.90;;;;;;5036154;28;20548;-33
2022/07/12 11:34:31;;;;;;;2.90;2.00;;;29.90;93.60;;;;;;5035833;28;20472;-32
2022/07/12 11:36:59;;;;;;;5.18;2.70;;;29.90;94.10;;;;;;5035997;28;20053;-31
2022/07/12 11:39:36;;;;;;;3.08;2.63;;;29.70;94.10;;;;;;5034667;28;20029;-31
2022/07/12 11:42:02;;;;;;;2.05;1.90;;;29.60;93.60;;;;;;5035774;28;20481;-32
2022/07/12 11:44:49;;;;;;;3.45;2.28;;;29.60;93.70;;;;;;5035428;28;20033;-32
2022/07/12 11:47:16;;;;;;;1.98;1.70;;;29.70;93.30;;;;;;5035619;28;20037;-33
2022/07/12 11:49:44;;;;;;;;;;;29.70;93.50;;;;;;5036306;28;20033;-32
2022/07/12 11:52:12;;;;;;;3.15;2.13;;;29.60;93.70;;;;;;5035787;28;20000;-32
2022/07/12 11:54:38;;;;;;;1.90;1.73;;;29.60;93.50;;;;;;5035654;28;20544;-31
2022/07/12 11:57:11;;;;;;;2.47;2.28;;;29.70;93.50;;;;;;5035967;28;20026;-28
2022/07/12 11:59:37;;;;;;;3.28;2.70;;;29.80;93.00;;;;;;5017746;28;20462;-34
2022/07/12 12:02:04;;;;;;;2.28;1.98;;;29.80;93.20;;;;;;5030375;28;20053;-34
2022/07/12 12:04:30;;;;;;;2.45;2.25;;;29.70;94.30;;;;;;5033956;28;20104;-33
2022/07/12 12:06:55;;;;;;;4.75;2.72;;;29.60;93.90;;;;;;5027951;28;20122;-36
2022/07/12 12:09:21;;;;;;;2.45;2.22;;;29.40;93.90;;;;;;5030975;28;20021;-35
2022/07/12 12:11:47;;;;;;;4.68;2.92;;;29.50;93.60;;;;;;5031417;28;20028;-30
2022/07/12 12:14:12;;;;;;;2.78;2.20;;;29.70;92.90;;;;;;5033651;28;20018;-32
2022/07/12 12:16:38;;;;;;;7.97;3.53;;;29.80;93.40;;;;;;5033266;28;20025;-32
2022/07/12 12:19:10;;;;;;;2.83;2.63;;;29.90;93.20;;;;;;5017398;28;20543;-38
2022/07/12 12:21:35;;;;;;;4.47;3.15;;;30.10;93.70;;;;;;5033458;28;20029;-47
2022/07/12 12:24:11;;;;;;;2.47;2.33;;;30.20;93.40;;;;;;5034847;28;20105;-39
2022/07/12 12:26:37;;;;;;;2.37;2.10;;;30.30;93.40;;;;;;5028977;28;20029;-39
2022/07/12 12:29:03;;;;;;;3.47;2.33;;;30.30;93.00;;;;;;5032738;28;20025;-39
2022/07/12 12:31:28;;;;;;;2.38;2.17;;;30.40;92.40;;;;;;5035478;28;20031;-39
2022/07/12 12:33:58;;;;;;;2.72;2.53;;;30.40;92.40;;;;;;5035761;28;20025;-39
2022/07/12 12:36:26;;;;;;;2.90;2.50;;;30.40;92.60;;;;;;5032465;28;20060;-31
2022/07/12 12:38:52;;;;;;;3.17;2.22;;;30.40;92.80;;;;;;5031840;28;20543;-30
2022/07/12 12:41:22;;;;;;;2.17;2.08;;;30.40;93.40;;;;;;5035617;28;20032;-30
2022/07/12 12:43:48;;;;;;;3.10;2.80;;;30.40;93.70;;;;;;5035011;28;20033;-32
2022/07/12 12:46:14;;;;;;;2.30;2.20;;;30.50;93.00;;;;;;5031989;28;20596;-32
2022/07/12 12:48:47;;;;;;;1.90;1.80;;;30.60;92.80;;;;;;5036083;28;20076;-31
2022/07/12 12:51:13;;;;;;;3.42;2.22;;;30.60;93.00;;;;;;5030988;28;20032;-39
2022/07/12 12:53:40;;;;;;;4.40;2.23;;;30.60;93.00;;;;;;5035019;28;20030;-43
2022/07/12 12:56:13;;;;;;;1.90;1.80;;;30.60;92.50;;;;;;5031884;28;20485;-42